createdAt,value
2023-06-07T00:00:19.107Z,22.1798
2023-06-07T00:01:20.943Z,22.1750
2023-06-07T00:02:36.869Z,22.1651
2023-06-07T00:03:25.670Z,22.1614
2023-06-07T00:04:26.464Z,22.1807
2023-06-07T00:05:28.321Z,22.1894
2023-06-07T00:06:30.136Z,22.1907
2023-06-07T00:07:31.976Z,22.1998
2023-06-07T00:08:33.840Z,22.2032
2023-06-07T00:09:35.654Z,22.2039
2023-06-07T00:10:37.492Z,22.2029
2023-06-07T00:11:39.316Z,22.2110
2023-06-07T00:12:41.150Z,22.2158
2023-06-07T00:13:43.020Z,22.2165
2023-06-07T00:14:44.849Z,22.2104
2023-06-07T00:15:46.718Z,22.2095
2023-06-07T00:16:48.616Z,22.2097
2023-06-07T00:17:50.487Z,22.2079
2023-06-07T00:18:52.209Z,22.2005
2023-06-07T00:19:54.055Z,22.2026
2023-06-07T00:20:55.933Z,22.2033
2023-06-07T00:21:57.726Z,22.2008
2023-06-07T00:22:59.566Z,22.1989
2023-06-07T00:24:01.412Z,22.1974
2023-06-07T00:25:03.278Z,22.1959
2023-06-07T00:26:05.091Z,22.1934
2023-06-07T00:27:06.939Z,22.1945
2023-06-07T00:28:08.779Z,22.1965
2023-06-07T00:29:10.608Z,22.1824
2023-06-07T00:30:12.458Z,22.1545
2023-06-07T00:31:14.330Z,22.1424
2023-06-07T00:32:16.152Z,22.1212
2023-06-07T00:33:17.970Z,22.1185
2023-06-07T00:34:19.801Z,22.1312
2023-06-07T00:35:21.654Z,22.1373
2023-06-07T00:36:23.545Z,22.1457
2023-06-07T00:37:25.371Z,22.1435
2023-06-07T00:38:27.163Z,22.1514
2023-06-07T00:39:29.002Z,22.1619
2023-06-07T00:40:30.855Z,22.1684
2023-06-07T00:41:32.704Z,22.1726
2023-06-07T00:42:34.535Z,22.1725
2023-06-07T00:43:36.358Z,22.1704
2023-06-07T00:44:38.225Z,22.1789
2023-06-07T00:45:40.031Z,22.1818
2023-06-07T00:46:41.929Z,22.1791
2023-06-07T00:47:43.804Z,22.1819
2023-06-07T00:48:45.671Z,22.1798
2023-06-07T00:49:47.407Z,22.1728
2023-06-07T00:50:49.254Z,22.1713
2023-06-07T00:51:51.174Z,22.1694
2023-06-07T00:52:52.904Z,22.1777
2023-06-07T00:53:54.735Z,22.1896
2023-06-07T00:54:56.600Z,22.1852
2023-06-07T00:55:58.432Z,22.1838
2023-06-07T00:57:00.290Z,22.1863
2023-06-07T00:58:02.097Z,22.1873
2023-06-07T00:59:03.935Z,22.1878
2023-06-07T01:00:06.033Z,22.1898
2023-06-07T01:01:07.639Z,22.1744
2023-06-07T01:02:09.555Z,22.1543
2023-06-07T01:03:11.378Z,22.1436
2023-06-07T01:04:13.135Z,22.1511
2023-06-07T01:05:14.979Z,22.1623
2023-06-07T01:06:16.806Z,22.1707
2023-06-07T01:07:18.711Z,22.1802
2023-06-07T01:08:20.476Z,22.1813
2023-06-07T01:09:22.383Z,22.1956
2023-06-07T01:10:24.173Z,22.2071
2023-06-07T01:11:26.017Z,22.1964
2023-06-07T01:12:27.848Z,22.1940
2023-06-07T01:13:29.682Z,22.1947
2023-06-07T01:14:31.532Z,22.1939
2023-06-07T01:15:33.372Z,22.1986
2023-06-07T01:16:35.252Z,22.1930
2023-06-07T01:17:37.060Z,22.1836
2023-06-07T01:18:38.871Z,22.1487
2023-06-07T01:19:40.722Z,22.1142
2023-06-07T01:20:42.570Z,22.1258
2023-06-07T01:21:44.411Z,22.1350
2023-06-07T01:22:46.271Z,22.1364
2023-06-07T01:23:48.098Z,22.1362
2023-06-07T01:24:49.910Z,22.1299
2023-06-07T01:25:51.748Z,22.1261
2023-06-07T01:26:53.613Z,22.1284
2023-06-07T01:27:55.414Z,22.1333
2023-06-07T01:28:57.242Z,22.1324
2023-06-07T01:29:59.074Z,22.1294
2023-06-07T01:31:00.925Z,22.1221
2023-06-07T01:32:02.779Z,22.1213
2023-06-07T01:33:04.752Z,22.1243
2023-06-07T01:34:06.419Z,22.1271
2023-06-07T01:35:08.256Z,22.1238
2023-06-07T01:36:10.118Z,22.1062
2023-06-07T01:37:11.951Z,22.0975
2023-06-07T01:38:13.855Z,22.0825
2023-06-07T01:39:15.649Z,22.0778
2023-06-07T01:40:17.473Z,22.0860
2023-06-07T01:41:19.300Z,22.0961
2023-06-07T01:42:21.135Z,22.1076
2023-06-07T01:43:22.981Z,22.1184
2023-06-07T01:44:24.820Z,22.1224
2023-06-07T01:45:26.644Z,22.1216
2023-06-07T01:46:28.550Z,22.1050
2023-06-07T01:47:30.302Z,22.0932
2023-06-07T01:48:32.170Z,22.0945
2023-06-07T01:49:33.990Z,22.0948
2023-06-07T01:50:35.826Z,22.0863
2023-06-07T01:51:37.681Z,22.0911
2023-06-07T01:52:39.498Z,22.1052
2023-06-07T01:53:41.364Z,22.1209
2023-06-07T01:54:43.161Z,22.1289
2023-06-07T01:55:45.019Z,22.1321
2023-06-07T01:56:46.875Z,22.1313
2023-06-07T01:57:48.694Z,22.1316
2023-06-07T01:58:50.530Z,22.1283
2023-06-07T01:59:52.357Z,22.1166
2023-06-07T02:00:54.190Z,22.1175
2023-06-07T02:01:56.124Z,22.1199
2023-06-07T02:02:57.900Z,22.1179
2023-06-07T02:03:59.762Z,22.1190
2023-06-07T02:05:01.534Z,22.1133
2023-06-07T02:06:10.956Z,22.0924
2023-06-07T02:07:05.206Z,22.0891
2023-06-07T02:08:07.060Z,22.0663
2023-06-07T02:09:08.961Z,22.0529
2023-06-07T02:10:11.109Z,22.0653
2023-06-07T02:11:12.580Z,22.0582
2023-06-07T02:12:14.405Z,22.0337
2023-06-07T02:13:16.249Z,22.0501
2023-06-07T02:14:18.144Z,22.0567
2023-06-07T02:15:19.940Z,22.0592
2023-06-07T02:16:21.777Z,22.0588
2023-06-07T02:17:23.655Z,22.0585
2023-06-07T02:18:25.494Z,22.0603
2023-06-07T02:19:27.304Z,22.0601
2023-06-07T02:20:29.119Z,22.0736
2023-06-07T02:21:30.982Z,22.0808
2023-06-07T02:22:32.803Z,22.0818
2023-06-07T02:23:34.661Z,22.0777
2023-06-07T02:24:36.562Z,22.0737
2023-06-07T02:25:38.330Z,22.0659
2023-06-07T02:26:40.148Z,22.0605
2023-06-07T02:27:41.978Z,22.0601
2023-06-07T02:28:43.819Z,22.0617
2023-06-07T02:29:45.710Z,22.0636
2023-06-07T02:30:47.512Z,22.0689
2023-06-07T02:31:49.438Z,22.0728
2023-06-07T02:32:51.340Z,22.0682
2023-06-07T02:33:53.013Z,22.0656
2023-06-07T02:34:54.908Z,22.0718
2023-06-07T02:35:56.704Z,22.0733
2023-06-07T02:36:58.544Z,22.0680
2023-06-07T02:38:00.366Z,22.0657
2023-06-07T02:39:02.240Z,22.0683
2023-06-07T02:40:04.286Z,22.0671
2023-06-07T02:41:05.883Z,22.0582
2023-06-07T02:42:07.724Z,22.0480
2023-06-07T02:43:09.577Z,22.0416
2023-06-07T02:44:11.497Z,22.0372
2023-06-07T02:45:13.272Z,22.0392
2023-06-07T02:46:15.097Z,22.0321
2023-06-07T02:47:16.925Z,22.0202
2023-06-07T02:48:18.753Z,22.0198
2023-06-07T02:49:20.606Z,22.0014
2023-06-07T02:50:22.461Z,21.9993
2023-06-07T02:51:24.288Z,22.0200
2023-06-07T02:52:26.110Z,22.0277
2023-06-07T02:53:27.941Z,22.0353
2023-06-07T02:54:29.825Z,22.0456
2023-06-07T02:55:31.642Z,22.0406
2023-06-07T02:56:33.520Z,22.0279
2023-06-07T02:57:35.302Z,22.0241
2023-06-07T02:58:37.132Z,22.0020
2023-06-07T02:59:38.973Z,21.9578
2023-06-07T03:00:40.861Z,21.9362
2023-06-07T03:01:42.662Z,21.9175
2023-06-07T03:02:44.524Z,21.8904
2023-06-07T03:03:46.387Z,21.8876
2023-06-07T03:04:48.155Z,21.8936
2023-06-07T03:05:50.042Z,21.9077
2023-06-07T03:06:51.845Z,21.9228
2023-06-07T03:07:53.705Z,21.9210
2023-06-07T03:08:55.542Z,21.9173
2023-06-07T03:09:57.383Z,21.9156
2023-06-07T03:10:59.209Z,21.9120
2023-06-07T03:12:01.106Z,21.9147
2023-06-07T03:13:02.967Z,21.9154
2023-06-07T03:14:04.782Z,21.9216
2023-06-07T03:15:06.643Z,21.9223
2023-06-07T03:16:08.489Z,21.9228
2023-06-07T03:17:10.573Z,21.9041
2023-06-07T03:18:12.191Z,21.8809
2023-06-07T03:19:13.981Z,21.8702
2023-06-07T03:20:15.811Z,21.8870
2023-06-07T03:21:17.705Z,21.8936
2023-06-07T03:22:19.495Z,21.8935
2023-06-07T03:23:21.314Z,21.8961
2023-06-07T03:24:23.172Z,21.8928
2023-06-07T03:25:25.065Z,21.8921
2023-06-07T03:26:26.919Z,21.8860
2023-06-07T03:27:28.696Z,21.8711
2023-06-07T03:28:30.514Z,21.8643
2023-06-07T03:29:32.366Z,21.8662
2023-06-07T03:30:34.247Z,21.8728
2023-06-07T03:31:36.080Z,21.8789
2023-06-07T03:32:37.907Z,21.8876
2023-06-07T03:33:39.727Z,21.8971
2023-06-07T03:34:41.564Z,21.9085
2023-06-07T03:35:43.391Z,21.9101
2023-06-07T03:36:45.268Z,21.9020
2023-06-07T03:37:47.066Z,21.8900
2023-06-07T03:38:48.902Z,21.8887
2023-06-07T03:39:50.757Z,21.8944
2023-06-07T03:40:52.600Z,21.8878
2023-06-07T03:41:54.596Z,21.8878
2023-06-07T03:42:56.279Z,21.8850
2023-06-07T03:43:58.116Z,21.8841
2023-06-07T03:44:59.938Z,21.8938
2023-06-07T03:46:01.815Z,21.8998
2023-06-07T03:47:03.636Z,21.9037
2023-06-07T03:48:05.513Z,21.8983
2023-06-07T03:49:07.334Z,21.8941
2023-06-07T03:50:09.180Z,21.8934
2023-06-07T03:51:10.986Z,21.8861
2023-06-07T03:52:12.847Z,21.8778
2023-06-07T03:53:14.650Z,21.8826
2023-06-07T03:54:16.485Z,21.8785
2023-06-07T03:55:18.339Z,21.8828
2023-06-07T03:56:20.188Z,21.8861
2023-06-07T03:57:22.050Z,21.8851
2023-06-07T03:58:23.846Z,21.8806
2023-06-07T03:59:25.703Z,21.8782
2023-06-07T04:00:27.558Z,21.8694
2023-06-07T04:01:29.379Z,21.8742
2023-06-07T04:02:31.328Z,21.8795
2023-06-07T04:03:33.123Z,21.8791
2023-06-07T04:04:35.015Z,21.8827
2023-06-07T04:05:36.732Z,21.8849
2023-06-07T04:06:38.584Z,21.8817
2023-06-07T04:07:40.429Z,21.8754
2023-06-07T04:08:42.242Z,21.8692
2023-06-07T04:09:44.085Z,21.8749
2023-06-07T04:10:45.935Z,21.8739
2023-06-07T04:11:47.780Z,21.8695
2023-06-07T04:12:49.773Z,21.8636
2023-06-07T04:13:51.461Z,21.8605
2023-06-07T04:14:53.280Z,21.8658
2023-06-07T04:15:55.129Z,21.8683
2023-06-07T04:16:57.123Z,21.8643
2023-06-07T04:17:58.920Z,21.8531
2023-06-07T04:19:02.270Z,21.8436
2023-06-07T04:20:02.472Z,21.8361
2023-06-07T04:21:04.354Z,21.8347
2023-06-07T04:22:06.176Z,21.8380
2023-06-07T04:23:08.021Z,21.8362
2023-06-07T04:24:09.936Z,21.8287
2023-06-07T04:25:11.699Z,21.8209
2023-06-07T04:26:13.534Z,21.8130
2023-06-07T04:27:15.377Z,21.8240
2023-06-07T04:28:17.262Z,21.8410
2023-06-07T04:29:19.053Z,21.8493
2023-06-07T04:30:20.882Z,21.8517
2023-06-07T04:31:22.736Z,21.8374
2023-06-07T04:32:24.624Z,21.8302
2023-06-07T04:33:26.400Z,21.8322
2023-06-07T04:34:28.233Z,21.8406
2023-06-07T04:35:30.072Z,21.8509
2023-06-07T04:36:31.928Z,21.8659
2023-06-07T04:37:33.757Z,21.8826
2023-06-07T04:38:46.300Z,21.8888
2023-06-07T04:39:39.182Z,21.8825
2023-06-07T04:40:39.741Z,21.8803
2023-06-07T04:41:41.323Z,21.8761
2023-06-07T04:42:42.951Z,21.8738
2023-06-07T04:43:44.837Z,21.8653
2023-06-07T04:44:46.614Z,21.8579
2023-06-07T04:45:48.452Z,21.8550
2023-06-07T04:46:50.290Z,21.8510
2023-06-07T04:47:52.188Z,21.8538
2023-06-07T04:48:54.002Z,21.8590
2023-06-07T04:49:55.800Z,21.8633
2023-06-07T04:50:57.635Z,21.8615
2023-06-07T04:51:59.472Z,21.8466
2023-06-07T04:53:01.320Z,21.8402
2023-06-07T04:54:03.220Z,21.8377
2023-06-07T04:55:04.975Z,21.8406
2023-06-07T04:56:06.827Z,21.8358
2023-06-07T04:57:08.663Z,21.8384
2023-06-07T04:58:10.514Z,21.8422
2023-06-07T04:59:12.348Z,21.8384
2023-06-07T05:00:14.189Z,21.8324
2023-06-07T05:01:16.008Z,21.8287
2023-06-07T05:02:17.835Z,21.8248
2023-06-07T05:03:19.683Z,21.8254
2023-06-07T05:04:21.625Z,21.8174
2023-06-07T05:05:23.440Z,21.8094
2023-06-07T05:06:25.253Z,21.8048
2023-06-07T05:07:27.023Z,21.7937
2023-06-07T05:08:28.863Z,21.7961
2023-06-07T05:09:31.064Z,21.8024
2023-06-07T05:10:32.555Z,21.8034
2023-06-07T05:11:34.405Z,21.7954
2023-06-07T05:12:36.224Z,21.7894
2023-06-07T05:13:38.058Z,21.8037
2023-06-07T05:14:39.905Z,21.8155
2023-06-07T05:15:41.765Z,21.8132
2023-06-07T05:16:44.630Z,21.8006
2023-06-07T05:17:45.447Z,21.7861
2023-06-07T05:18:47.260Z,21.7798
2023-06-07T05:19:49.093Z,21.7794
2023-06-07T05:20:50.922Z,21.7893
2023-06-07T05:21:52.763Z,21.7983
2023-06-07T05:22:54.628Z,21.7914
2023-06-07T05:23:56.451Z,21.7897
2023-06-07T05:24:58.275Z,21.7935
2023-06-07T05:26:00.093Z,21.7991
2023-06-07T05:27:01.944Z,21.8019
2023-06-07T05:28:13.187Z,21.8004
2023-06-07T05:29:08.304Z,21.7939
2023-06-07T05:30:08.896Z,21.7855
2023-06-07T05:31:12.048Z,21.7787
2023-06-07T05:32:11.964Z,21.7717
2023-06-07T05:33:13.539Z,21.7648
2023-06-07T05:34:15.110Z,21.7602
2023-06-07T05:35:16.690Z,21.7576
2023-06-07T05:36:18.451Z,21.7412
2023-06-07T05:37:20.287Z,21.7334
2023-06-07T05:38:22.115Z,21.7413
2023-06-07T05:39:23.946Z,21.7440
2023-06-07T05:40:25.813Z,21.7447
2023-06-07T05:41:27.628Z,21.7423
2023-06-07T05:42:29.453Z,21.7447
2023-06-07T05:43:31.295Z,21.7511
2023-06-07T05:44:33.132Z,21.7522
2023-06-07T05:45:35.013Z,21.7442
2023-06-07T05:46:36.830Z,21.7459
2023-06-07T05:47:38.702Z,21.7482
2023-06-07T05:48:40.476Z,21.7477
2023-06-07T05:49:42.334Z,21.7478
2023-06-07T05:50:44.158Z,21.7518
2023-06-07T05:51:45.991Z,21.7640
2023-06-07T05:52:47.832Z,21.7605
2023-06-07T05:53:49.664Z,21.7400
2023-06-07T05:54:51.494Z,21.7448
2023-06-07T05:55:53.349Z,21.7489
2023-06-07T05:56:55.161Z,21.7533
2023-06-07T05:57:57.040Z,21.7540
2023-06-07T05:58:58.857Z,21.7511
2023-06-07T06:00:00.677Z,21.7478
2023-06-07T06:01:02.556Z,21.7506
2023-06-07T06:02:04.380Z,21.7521
2023-06-07T06:03:06.226Z,21.7563
2023-06-07T06:04:08.048Z,21.7636
2023-06-07T06:05:10.048Z,21.7681
2023-06-07T06:06:11.720Z,21.7615
2023-06-07T06:07:13.552Z,21.7581
2023-06-07T06:08:15.407Z,21.7547
2023-06-07T06:09:17.274Z,21.7492
2023-06-07T06:10:19.080Z,21.7462
2023-06-07T06:11:20.935Z,21.7536
2023-06-07T06:12:22.767Z,21.7618
2023-06-07T06:13:24.607Z,21.7713
2023-06-07T06:14:26.510Z,21.7736
2023-06-07T06:15:28.273Z,21.7674
2023-06-07T06:16:30.180Z,21.7467
2023-06-07T06:17:31.993Z,21.7352
2023-06-07T06:18:33.842Z,21.7393
2023-06-07T06:19:35.640Z,21.7498
2023-06-07T06:20:37.477Z,21.7643
2023-06-07T06:21:39.315Z,21.7724
2023-06-07T06:22:41.159Z,21.7717
2023-06-07T06:23:43.025Z,21.7754
2023-06-07T06:24:44.826Z,21.7804
2023-06-07T06:25:46.652Z,21.7842
2023-06-07T06:26:48.499Z,21.7905
2023-06-07T06:27:50.399Z,21.7961
2023-06-07T06:28:52.182Z,21.8043
2023-06-07T06:29:54.009Z,21.8169
2023-06-07T06:30:55.861Z,21.8245
2023-06-07T06:31:57.685Z,21.8217
2023-06-07T06:32:59.561Z,21.8114
2023-06-07T06:34:01.343Z,21.8080
2023-06-07T06:35:03.174Z,21.8124
2023-06-07T06:36:05.004Z,21.8172
2023-06-07T06:37:06.928Z,21.8217
2023-06-07T06:38:08.840Z,21.8256
2023-06-07T06:39:10.504Z,21.8235
2023-06-07T06:40:12.341Z,21.8242
2023-06-07T06:41:14.190Z,21.8215
2023-06-07T06:42:16.035Z,21.8231
2023-06-07T06:43:17.868Z,21.8223
2023-06-07T06:44:19.687Z,21.8221
2023-06-07T06:45:21.528Z,21.8240
2023-06-07T06:46:23.459Z,21.8267
2023-06-07T06:47:25.266Z,21.8219
2023-06-07T06:48:27.019Z,21.8133
2023-06-07T06:49:28.866Z,21.8157
2023-06-07T06:50:33.347Z,21.8166
2023-06-07T06:51:32.541Z,21.8203
2023-06-07T06:52:34.386Z,21.8240
2023-06-07T06:53:36.233Z,21.8273
2023-06-07T06:54:38.065Z,21.8301
2023-06-07T06:55:39.878Z,21.8277
2023-06-07T06:56:41.734Z,21.8270
2023-06-07T06:57:43.562Z,21.8286
2023-06-07T06:58:45.404Z,21.8220
2023-06-07T06:59:50.067Z,21.8178
2023-06-07T07:00:49.215Z,21.8197
2023-06-07T07:01:50.932Z,21.8330
2023-06-07T07:02:52.976Z,21.8394
2023-06-07T07:03:54.612Z,21.8517
2023-06-07T07:04:56.402Z,21.8751
2023-06-07T07:05:58.253Z,21.8866
2023-06-07T07:07:00.080Z,21.8902
2023-06-07T07:08:01.931Z,21.8995
2023-06-07T07:09:03.743Z,21.8952
2023-06-07T07:10:05.741Z,21.9023
2023-06-07T07:11:07.418Z,21.9132
2023-06-07T07:12:09.259Z,21.9164
2023-06-07T07:13:11.118Z,21.9143
2023-06-07T07:14:12.913Z,21.9132
2023-06-07T07:15:14.786Z,21.9169
2023-06-07T07:16:16.762Z,21.9188
2023-06-07T07:17:18.500Z,21.9154
2023-06-07T07:18:20.346Z,21.9145
2023-06-07T07:19:22.174Z,21.9079
2023-06-07T07:20:24.008Z,21.9139
2023-06-07T07:21:25.863Z,21.9203
2023-06-07T07:22:29.109Z,21.9253
2023-06-07T07:23:29.568Z,21.9259
2023-06-07T07:24:31.361Z,21.9311
2023-06-07T07:25:33.202Z,21.9391
2023-06-07T07:26:35.051Z,21.9324
2023-06-07T07:27:36.907Z,21.9255
2023-06-07T07:28:38.760Z,21.9313
2023-06-07T07:29:40.553Z,21.9362
2023-06-07T07:30:42.393Z,21.9430
2023-06-07T07:31:44.225Z,21.9559
2023-06-07T07:32:46.145Z,21.9645
2023-06-07T07:33:48.182Z,21.9631
2023-06-07T07:34:49.810Z,21.9683
2023-06-07T07:35:51.584Z,21.9755
2023-06-07T07:36:53.409Z,21.9751
2023-06-07T07:37:55.258Z,21.9604
2023-06-07T07:38:57.118Z,21.9546
2023-06-07T07:39:58.941Z,21.9500
2023-06-07T07:41:00.772Z,21.9555
2023-06-07T07:42:03.579Z,21.9660
2023-06-07T07:43:04.474Z,21.9805
2023-06-07T07:44:06.320Z,21.9878
2023-06-07T07:45:08.140Z,21.9885
2023-06-07T07:46:10.014Z,21.9874
2023-06-07T07:47:11.812Z,21.9897
2023-06-07T07:48:13.696Z,21.9943
2023-06-07T07:49:15.567Z,21.9882
2023-06-07T07:50:17.331Z,21.9818
2023-06-07T07:51:19.149Z,21.9793
2023-06-07T07:52:22.649Z,21.9838
2023-06-07T07:53:22.842Z,21.9810
2023-06-07T07:54:24.697Z,21.9841
2023-06-07T07:55:26.518Z,21.9916
2023-06-07T07:56:28.357Z,21.9896
2023-06-07T07:57:30.181Z,21.9754
2023-06-07T07:58:32.040Z,21.9698
2023-06-07T07:59:34.112Z,21.9777
2023-06-07T08:00:35.715Z,21.9689
2023-06-07T08:01:37.572Z,21.9720
2023-06-07T08:02:39.506Z,21.9795
2023-06-07T08:03:41.347Z,21.9764
2023-06-07T08:04:43.227Z,21.9740
2023-06-07T08:05:44.915Z,21.9780
2023-06-07T08:06:46.751Z,21.9848
2023-06-07T08:07:48.585Z,21.9903
2023-06-07T08:08:50.407Z,21.9873
2023-06-07T08:09:52.266Z,21.9978
2023-06-07T08:10:54.105Z,22.0041
2023-06-07T08:11:55.929Z,22.0019
2023-06-07T08:12:57.763Z,22.0077
2023-06-07T08:13:59.604Z,22.0114
2023-06-07T08:15:01.459Z,22.0203
2023-06-07T08:16:03.320Z,22.0285
2023-06-07T08:17:05.119Z,22.0247
2023-06-07T08:18:06.956Z,22.0224
2023-06-07T08:19:08.827Z,22.0251
2023-06-07T08:20:10.647Z,22.0344
2023-06-07T08:21:12.453Z,22.0451
2023-06-07T08:22:14.302Z,22.0532
2023-06-07T08:23:16.142Z,22.0533
2023-06-07T08:24:17.963Z,22.0506
2023-06-07T08:25:19.835Z,22.0437
2023-06-07T08:26:21.635Z,22.0436
2023-06-07T08:27:23.467Z,22.0495
2023-06-07T08:28:25.290Z,22.0553
2023-06-07T08:29:27.125Z,22.0632
2023-06-07T08:30:29.002Z,22.0727
2023-06-07T08:31:30.841Z,22.0774
2023-06-07T08:32:32.749Z,22.0833
2023-06-07T08:33:34.478Z,22.0898
2023-06-07T08:34:36.318Z,22.0943
2023-06-07T08:35:38.153Z,22.1019
2023-06-07T08:36:39.990Z,22.1058
2023-06-07T08:37:41.809Z,22.1061
2023-06-07T08:38:43.661Z,22.1144
2023-06-07T08:39:45.485Z,22.1222
2023-06-07T08:40:47.339Z,22.1276
2023-06-07T08:41:49.157Z,22.1339
2023-06-07T08:42:51.009Z,22.1412
2023-06-07T08:43:52.807Z,22.1479
2023-06-07T08:44:54.653Z,22.1533
2023-06-07T08:45:56.618Z,22.1589
2023-06-07T08:46:58.307Z,22.1664
2023-06-07T08:48:00.240Z,22.1735
2023-06-07T08:49:01.984Z,22.1824
2023-06-07T08:50:04.259Z,22.1905
2023-06-07T08:51:05.671Z,22.1970
2023-06-07T08:53:10.309Z,22.2044
2023-06-07T08:54:11.158Z,22.2103
2023-06-07T08:55:13.197Z,22.2166
2023-06-07T08:56:17.889Z,22.2224
2023-06-07T08:57:16.677Z,22.2243
2023-06-07T08:58:18.492Z,22.2328
2023-06-07T08:59:20.316Z,22.2392
2023-06-07T09:00:22.152Z,22.2460
2023-06-07T09:01:24.100Z,22.2522
2023-06-07T09:02:25.978Z,22.2575
2023-06-07T09:03:27.762Z,22.2613
2023-06-07T09:04:29.541Z,22.2661
2023-06-07T09:05:31.644Z,22.2706
2023-06-07T09:06:33.262Z,22.2751
2023-06-07T09:07:35.040Z,22.2768
2023-06-07T09:08:36.870Z,22.2816
2023-06-07T09:09:38.697Z,22.2841
2023-06-07T09:10:40.541Z,22.2867
2023-06-07T09:11:42.404Z,22.2917
2023-06-07T09:12:44.243Z,22.2980
2023-06-07T09:13:46.077Z,22.3030
2023-06-07T09:14:47.893Z,22.3061
2023-06-07T09:15:49.724Z,22.3125
2023-06-07T09:16:51.772Z,22.3196
2023-06-07T09:17:53.688Z,22.3242
2023-06-07T09:18:55.359Z,22.3297
2023-06-07T09:19:57.088Z,22.3351
2023-06-07T09:20:58.937Z,22.3393
2023-06-07T09:22:00.949Z,22.3443
2023-06-07T09:23:02.612Z,22.3480
2023-06-07T09:24:04.461Z,22.3514
2023-06-07T09:25:06.608Z,22.3539
2023-06-07T09:26:08.120Z,22.3554
2023-06-07T09:27:09.977Z,22.3580
2023-06-07T09:28:11.789Z,22.3619
2023-06-07T09:29:13.623Z,22.3678
2023-06-07T09:30:15.470Z,22.3719
2023-06-07T09:31:17.337Z,22.3785
2023-06-07T09:32:19.187Z,22.3844
2023-06-07T09:33:21.041Z,22.3897
2023-06-07T09:34:22.799Z,22.3938
2023-06-07T09:35:24.649Z,22.3967
2023-06-07T09:36:26.522Z,22.4008
2023-06-07T09:37:28.462Z,22.4064
2023-06-07T09:38:30.155Z,22.4101
2023-06-07T09:39:32.006Z,22.4148
2023-06-07T09:40:33.829Z,22.4191
2023-06-07T09:41:35.654Z,22.4241
2023-06-07T09:42:37.508Z,22.4282
2023-06-07T09:43:39.348Z,22.4305
2023-06-07T09:44:41.173Z,22.4323
2023-06-07T09:45:43.039Z,22.4315
2023-06-07T09:46:44.860Z,22.4293
2023-06-07T09:47:46.694Z,22.4305
2023-06-07T09:48:48.777Z,22.4329
2023-06-07T09:49:50.389Z,22.4408
2023-06-07T09:50:52.203Z,22.4445
2023-06-07T09:51:54.102Z,22.4421
2023-06-07T09:52:55.920Z,22.4448
2023-06-07T09:53:57.752Z,22.4445
2023-06-07T09:54:59.545Z,22.4440
2023-06-07T09:56:01.466Z,22.4462
2023-06-07T09:57:03.221Z,22.4464
2023-06-07T09:58:05.048Z,22.4498
2023-06-07T09:59:06.902Z,22.4536
2023-06-07T10:00:09.128Z,22.4584
2023-06-07T10:01:10.581Z,22.4549
2023-06-07T10:02:12.395Z,22.4514
2023-06-07T10:03:14.368Z,22.4499
2023-06-07T10:04:16.115Z,22.4483
2023-06-07T10:05:17.897Z,22.4458
2023-06-07T10:06:19.733Z,22.4486
2023-06-07T10:07:21.572Z,22.4506
2023-06-07T10:08:23.455Z,22.4483
2023-06-07T10:09:25.268Z,22.4478
2023-06-07T10:10:27.104Z,22.4509
2023-06-07T10:11:28.896Z,22.4548
2023-06-07T10:12:30.758Z,22.4542
2023-06-07T10:13:32.644Z,22.4543
2023-06-07T10:14:34.563Z,22.4516
2023-06-07T10:15:36.254Z,22.4456
2023-06-07T10:16:38.139Z,22.4449
2023-06-07T10:17:39.949Z,22.4447
2023-06-07T10:18:41.783Z,22.4475
2023-06-07T10:19:43.612Z,22.4500
2023-06-07T10:20:45.510Z,22.4529
2023-06-07T10:21:47.330Z,22.4578
2023-06-07T10:22:49.143Z,22.4605
2023-06-07T10:23:51.096Z,22.4608
2023-06-07T10:24:52.867Z,22.4573
2023-06-07T10:25:54.623Z,22.4520
2023-06-07T10:26:56.477Z,22.4410
2023-06-07T10:27:58.302Z,22.4365
2023-06-07T10:29:00.159Z,22.4387
2023-06-07T10:30:02.012Z,22.4472
2023-06-07T10:31:03.816Z,22.4492
2023-06-07T10:32:05.703Z,22.4448
2023-06-07T10:33:07.540Z,22.4390
2023-06-07T10:34:09.390Z,22.4380
2023-06-07T10:35:13.614Z,22.4326
2023-06-07T10:36:13.061Z,22.4337
2023-06-07T10:37:14.908Z,22.4499
2023-06-07T10:38:16.698Z,22.4629
2023-06-07T10:39:18.566Z,22.4727
2023-06-07T10:40:20.406Z,22.4817
2023-06-07T10:41:22.223Z,22.4726
2023-06-07T10:42:24.047Z,22.4718
2023-06-07T10:43:25.879Z,22.4710
2023-06-07T10:44:27.798Z,22.4671
2023-06-07T10:45:29.570Z,22.4767
2023-06-07T10:46:31.425Z,22.4933
2023-06-07T10:47:33.287Z,22.5089
2023-06-07T10:48:35.134Z,22.5234
2023-06-07T10:49:36.973Z,22.5376
2023-06-07T10:50:38.801Z,22.5534
2023-06-07T10:51:40.666Z,22.5613
2023-06-07T10:52:42.461Z,22.5712
2023-06-07T10:53:44.347Z,22.5832
2023-06-07T10:54:46.143Z,22.5937
2023-06-07T10:55:47.986Z,22.6001
2023-06-07T10:56:49.819Z,22.6038
2023-06-07T10:57:51.664Z,22.6113
2023-06-07T10:58:53.488Z,22.6160
2023-06-07T10:59:55.334Z,22.6184
2023-06-07T11:00:57.226Z,22.6219
2023-06-07T11:01:59.076Z,22.6254
2023-06-07T11:03:00.949Z,22.6274
2023-06-07T11:04:02.960Z,22.6220
2023-06-07T11:05:04.893Z,22.6144
2023-06-07T11:06:06.796Z,22.6096
2023-06-07T11:07:08.195Z,22.6033
2023-06-07T11:08:10.039Z,22.6101
2023-06-07T11:09:11.870Z,22.6163
2023-06-07T11:10:13.844Z,22.6198
2023-06-07T11:11:15.575Z,22.6136
2023-06-07T11:12:17.419Z,22.6137
2023-06-07T11:13:19.253Z,22.6247
2023-06-07T11:14:21.087Z,22.6421
2023-06-07T11:15:23.091Z,22.6537
2023-06-07T11:16:24.823Z,22.6620
2023-06-07T11:17:26.660Z,22.6690
2023-06-07T11:18:28.579Z,22.6719
2023-06-07T11:19:30.424Z,22.6746
2023-06-07T11:20:32.205Z,22.6797
2023-06-07T11:21:34.031Z,22.6869
2023-06-07T11:22:35.900Z,22.6861
2023-06-07T11:23:37.771Z,22.6918
2023-06-07T11:24:39.631Z,22.7045
2023-06-07T11:25:41.548Z,22.7109
2023-06-07T11:26:43.238Z,22.7090
2023-06-07T11:27:45.083Z,22.7035
2023-06-07T11:28:46.991Z,22.7000
2023-06-07T11:29:48.741Z,22.6986
2023-06-07T11:30:50.597Z,22.6968
2023-06-07T11:31:52.465Z,22.6989
2023-06-07T11:32:54.301Z,22.7034
2023-06-07T11:33:56.123Z,22.7014
2023-06-07T11:34:58.013Z,22.7009
2023-06-07T11:35:59.786Z,22.7001
2023-06-07T11:37:01.625Z,22.7002
2023-06-07T11:38:03.469Z,22.7052
2023-06-07T11:39:05.311Z,22.7044
2023-06-07T11:40:07.410Z,22.7125
2023-06-07T11:41:08.996Z,22.7161
2023-06-07T11:42:10.849Z,22.7244
2023-06-07T11:43:12.671Z,22.7253
2023-06-07T11:44:14.504Z,22.7159
2023-06-07T11:45:16.350Z,22.7195
2023-06-07T11:46:18.180Z,22.7270
2023-06-07T11:47:20.062Z,22.7336
2023-06-07T11:48:21.945Z,22.7409
2023-06-07T11:49:23.701Z,22.7482
2023-06-07T11:50:25.521Z,22.7578
2023-06-07T11:51:27.590Z,22.7746
2023-06-07T11:52:29.196Z,22.7852
2023-06-07T11:53:31.041Z,22.7959
2023-06-07T11:54:32.889Z,22.8015
2023-06-07T11:55:34.720Z,22.8042
2023-06-07T11:56:36.592Z,22.8078
2023-06-07T11:57:38.427Z,22.8110
2023-06-07T11:58:40.248Z,22.8228
2023-06-07T11:59:42.204Z,22.8329
2023-06-07T12:00:43.949Z,22.8305
2023-06-07T12:01:45.777Z,22.8355
2023-06-07T12:02:47.628Z,22.8325
2023-06-07T12:03:49.534Z,22.8204
2023-06-07T12:04:51.318Z,22.8017
2023-06-07T12:05:53.093Z,22.7974
2023-06-07T12:06:54.946Z,22.8009
2023-06-07T12:07:57.686Z,22.8073
2023-06-07T12:08:58.624Z,22.8196
2023-06-07T12:10:00.453Z,22.8322
2023-06-07T12:11:02.307Z,22.8429
2023-06-07T12:12:04.235Z,22.8487
2023-06-07T12:13:05.975Z,22.8489
2023-06-07T12:14:07.803Z,22.8520
2023-06-07T12:15:09.637Z,22.8491
2023-06-07T12:16:11.515Z,22.8349
2023-06-07T12:17:13.358Z,22.8116
2023-06-07T12:18:15.169Z,22.7971
2023-06-07T12:19:16.994Z,22.7851
2023-06-07T12:20:18.830Z,22.7624
2023-06-07T12:21:20.691Z,22.7753
2023-06-07T12:22:22.594Z,22.7855
2023-06-07T12:23:24.419Z,22.7929
2023-06-07T12:24:26.189Z,22.8039
2023-06-07T12:25:28.058Z,22.8052
2023-06-07T12:26:32.207Z,22.7970
2023-06-07T12:27:31.726Z,22.7932
2023-06-07T12:28:33.553Z,22.8001